Whale Watcher II — WDB8211 — position and weather

sailwx.info

Track history (hours):
 
Tides and Currents Weather Stations Pressure Air Temp Water Temp Dewpoint Dewpoint Depression Visibility Wind Speed Wind Dir Waves Ship Positions

Whale Watcher II

Owner: Ronald L. Robbins LLC, Cape May, NJ. More information available from US FCC via Universal Licensing System and Coast Guard Vessel Documentation Center.

Last reported at 2016-Apr-30 00:33 UTC. Time now 2016-Apr-30 01:28 UTC.
Position N 29°55' W 090°04'.

Length 22 m.

Type: Towing. MMSI: 367011790.

Date/timePositionNaut miles runAvg speedWind from/ knotsBaromVisibWave heightAir tempDewpointWater temp
2016-Apr-30 00:33N 29°55' W 090°04'0 0.1
2016-Apr-29 23:33N 29°55' W 090°04'0 0.0
2016-Apr-29 22:33N 29°55' W 090°04'0 0.0
2016-Apr-29 21:33N 29°55' W 090°04'0 0.1
2016-Apr-29 20:33N 29°55' W 090°04'0 0.0
2016-Apr-29 19:33N 29°55' W 090°04'0 0.1
2016-Apr-29 18:33N 29°55' W 090°04'0 0.0
2016-Apr-29 17:33N 29°55' W 090°04'0 0.0
2016-Apr-29 16:33N 29°55' W 090°04'0 0.0
2016-Apr-29 15:33N 29°55' W 090°04'0 0.0
2016-Apr-29 14:33N 29°55' W 090°04'0 0.0
2016-Apr-29 13:33N 29°55' W 090°04'0 0.0
2016-Apr-29 12:33N 29°55' W 090°04'0 0.0
2016-Apr-29 11:33N 29°55' W 090°04'0 0.0
2016-Apr-29 10:33N 29°55' W 090°04'0 0.0
2016-Apr-29 09:33N 29°55' W 090°04'2 2.5
2016-Apr-29 08:33N 29°57' W 090°02'5 4.8
2016-Apr-29 07:32N 29°55' W 089°56'3 2.9
2016-Apr-29 06:30N 29°52' W 089°56'4 3.9
2016-Apr-29 05:33N 29°50' W 089°60'6 0.2
2016-Apr-28 04:04N 29°44' W 089°60'4 7.4
2016-Apr-28 03:31N 29°48' W 090°00'8 6.4
2016-Apr-28 02:17N 29°55' W 089°55'6 9.0
2016-Apr-28 01:33N 29°57' W 090°02'3 2.6
2016-Apr-28 00:33N 29°55' W 090°04'0 0.1
2016-Apr-27 23:30N 29°56' W 090°04'0 0.4
2016-Apr-27 22:26N 29°56' W 090°03'1 0.6
2016-Apr-27 21:33N 29°55' W 090°04'2 2.2
2016-Apr-27 20:33N 29°57' W 090°02'2 1.6
2016-Apr-27 19:12N 29°56' W 090°00'0 0.0
2016-Apr-27 18:33N 29°56' W 090°00'0 0.0
2016-Apr-27 17:33N 29°56' W 090°00'0 0.0
2016-Apr-27 16:33N 29°56' W 090°00'0 0.0
2016-Apr-27 15:33N 29°56' W 090°00'0 0.1
2016-Apr-27 14:33N 29°56' W 090°00'1 1.2
2016-Apr-27 13:33N 29°57' W 090°01'0 0.0
2016-Apr-27 12:33N 29°57' W 090°01'0 0.0
2016-Apr-27 11:33N 29°57' W 090°01'0 0.0
2016-Apr-27 10:33N 29°57' W 090°01'0 0.0
2016-Apr-27 09:33N 29°57' W 090°01'0 0.1
2016-Apr-27 08:33N 29°57' W 090°01'3 2.6
2016-Apr-27 07:33N 29°55' W 090°04'0 0.1
2016-Apr-27 06:33N 29°55' W 090°04'2 1.9
2016-Apr-27 05:33N 29°55' W 090°06'4 0.4
2016-Apr-26 17:33N 29°57' W 090°10'4 4.1
2016-Apr-26 16:33N 29°55' W 090°06'2 2.3
2016-Apr-26 15:33N 29°56' W 090°03'2 1.7
2016-Apr-26 14:33N 29°55' W 090°05'1 1.2
2016-Apr-26 13:33N 29°55' W 090°06'0 0.0
2016-Apr-26 12:33N 29°55' W 090°06'0 0.0
2016-Apr-26 11:33N 29°55' W 090°06'0 0.0
2016-Apr-26 10:33N 29°55' W 090°06'0 0.0
2016-Apr-26 09:33N 29°55' W 090°06'0 0.0
2016-Apr-26 08:33N 29°55' W 090°06'0 0.0
2016-Apr-26 07:33N 29°55' W 090°06'0 0.0
2016-Apr-26 06:33N 29°55' W 090°06'0 0.0
2016-Apr-26 05:33N 29°55' W 090°06'0 0.0
2016-Apr-26 04:33N 29°55' W 090°06'3 2.5
2016-Apr-26 03:33N 29°56' W 090°04'0 0.1
2016-Apr-26 02:33N 29°56' W 090°04'0 0.0
2016-Apr-26 01:33N 29°56' W 090°04'0 0.0
2016-Apr-26 00:33N 29°56' W 090°04'0 0.0
2016-Apr-25 23:33N 29°56' W 090°04'0 0.2
2016-Apr-25 22:33N 29°56' W 090°03'0 0.0
2016-Apr-25 21:33N 29°56' W 090°03'0 0.5
2016-Apr-25 20:33N 29°55' W 090°04'0 0.0
2016-Apr-25 19:33N 29°55' W 090°04'0 0.0
2016-Apr-25 18:33N 29°55' W 090°04'0 0.0
2016-Apr-25 17:33N 29°55' W 090°04'0 0.0
2016-Apr-25 16:33N 29°55' W 090°04'0 0.0
2016-Apr-25 15:33N 29°55' W 090°04'0 0.0
2016-Apr-25 14:33N 29°55' W 090°04'0 0.0
2016-Apr-25 13:33N 29°55' W 090°04'0 0.1
2016-Apr-25 12:33N 29°55' W 090°04'1 1.0
2016-Apr-25 11:33N 29°56' W 090°03'3 3.3
2016-Apr-25 10:33N 29°56' W 089°60'4 4.3
2016-Apr-25 09:33N 29°55' W 089°55'3 2.8
2016-Apr-25 08:33N 29°52' W 089°57'4 3.5
2016-Apr-25 07:32N 29°50' W 089°60'5 0.7
2016-Apr-25 00:32N 29°45' W 090°01'8 8.6
2016-Apr-24 23:33N 29°53' W 089°57'0 0.2
2016-Apr-24 22:33N 29°53' W 089°57'0 0.0
2016-Apr-24 21:33N 29°53' W 089°57'0 0.0
2016-Apr-24 20:33N 29°53' W 089°57'3 3.4
2016-Apr-24 19:33N 29°50' W 089°60'0 0.0
2016-Apr-24 18:18N 29°50' W 089°60'0 0.0
2016-Apr-24 17:25N 29°50' W 089°60'2 2.6
2016-Apr-24 16:33N 29°52' W 089°59'3 3.2
2016-Apr-24 15:33N 29°55' W 089°58'5 5.1
2016-Apr-24 14:34N 29°55' W 090°04'0 0.1
2016-Apr-24 13:33N 29°56' W 090°04'3 2.5
2016-Apr-24 12:33N 29°57' W 090°01'1 0.9
2016-Apr-24 11:33N 29°56' W 090°00'0 0.0
2016-Apr-24 10:33N 29°56' W 090°00'0 0.5
2016-Apr-24 09:33N 29°56' W 089°60'0 0.0
2016-Apr-24 08:33N 29°56' W 089°60'0 0.1
2016-Apr-24 07:33N 29°56' W 089°60'1 1.5
2016-Apr-24 06:33N 29°56' W 089°58'2 1.3
2016-Apr-24 05:21N 29°56' W 089°56'0 0.0
2016-Apr-24 04:26N 29°55' W 089°56'0 0.0
2016-Apr-24 03:33N 29°55' W 089°57'2 2.3
2016-Apr-24 02:33N 29°56' W 089°59'4 4.0
2016-Apr-24 01:33N 29°55' W 090°04'0 0.0
2016-Apr-24 00:34N 29°55' W 090°04'0 0.0
2016-Apr-23 23:33N 29°55' W 090°04'0 0.2
2016-Apr-23 22:33N 29°55' W 090°04'0 0.3
2016-Apr-23 21:33N 29°56' W 090°04'0 0.1
2016-Apr-23 20:33N 29°55' W 090°04'0 0.0
2016-Apr-23 19:34N 29°55' W 090°04'0 0.0
2016-Apr-23 18:34N 29°55' W 090°04'0 0.0
2016-Apr-23 17:34N 29°55' W 090°04'0 0.1
2016-Apr-23 16:33N 29°55' W 090°04'0 0.2
2016-Apr-23 15:33N 29°56' W 090°04'0 0.1
2016-Apr-23 14:33N 29°56' W 090°04'0 0.1
2016-Apr-23 13:33N 29°55' W 090°04'1 0.6
2016-Apr-23 12:33N 29°56' W 090°03'0 0.0
2016-Apr-23 11:33N 29°56' W 090°03'0 0.0
2016-Apr-23 10:33N 29°56' W 090°03'0 0.0
2016-Apr-23 09:33N 29°56' W 090°03'0 0.0
2016-Apr-23 08:33N 29°56' W 090°03'0 0.0
2016-Apr-23 07:33N 29°56' W 090°03'0 0.0
2016-Apr-23 06:33N 29°56' W 090°03'0 0.0
2016-Apr-23 05:33N 29°56' W 090°03'0 0.0
2016-Apr-23 04:34N 29°56' W 090°03'0 0.0
2016-Apr-23 03:33N 29°56' W 090°03'0 0.0
2016-Apr-23 02:33N 29°56' W 090°03'0 0.0
2016-Apr-23 01:33N 29°56' W 090°03'0 0.1
2016-Apr-23 00:33N 29°56' W 090°03'3 2.8
2016-Apr-22 23:33N 29°56' W 090°00'4 4.1
2016-Apr-22 22:33N 29°55' W 089°56'2 0.5
2016-Apr-22 19:29N 29°54' W 089°54'9 9.3
2016-Apr-22 18:33N 29°57' W 090°04'2 1.8
2016-Apr-22 17:33N 29°55' W 090°04'0 0.0
2016-Apr-22 16:33N 29°55' W 090°04'0 0.0
2016-Apr-22 15:33N 29°55' W 090°04'0 0.4
2016-Apr-22 14:33N 29°56' W 090°04'0 0.1
2016-Apr-22 13:33N 29°56' W 090°04'1 0.8
2016-Apr-22 12:33N 29°55' W 090°04'0 0.0
2016-Apr-22 11:33N 29°55' W 090°04'0 0.0
2016-Apr-22 10:34N 29°55' W 090°04'0 0.0
2016-Apr-22 09:33N 29°55' W 090°04'0 0.0
2016-Apr-22 08:33N 29°55' W 090°04'0 0.0
2016-Apr-22 07:33N 29°55' W 090°04'0 0.0
2016-Apr-22 06:33N 29°55' W 090°04'0 0.0
2016-Apr-22 05:33N 29°55' W 090°04'1 0.8
2016-Apr-22 04:33N 29°56' W 090°03'0 0.2
2016-Apr-22 03:33N 29°56' W 090°04'0 0.0
2016-Apr-22 02:33N 29°56' W 090°04'1 0.9
2016-Apr-22 01:33N 29°55' W 090°05'1 0.9
2016-Apr-22 00:33N 29°56' W 090°04'0 0.2
2016-Apr-21 23:33N 29°56' W 090°03'0 0.0
2016-Apr-21 22:34N 29°56' W 090°03'0 0.0
2016-Apr-21 21:33N 29°56' W 090°03'0 0.3
2016-Apr-21 20:33N 29°56' W 090°04'0 0.2
2016-Apr-21 19:33N 29°55' W 090°04'0 0.0
2016-Apr-21 18:33N 29°55' W 090°04'0 0.0
2016-Apr-21 17:33N 29°55' W 090°04'0 0.0
2016-Apr-21 16:34N 29°55' W 090°04'0 0.0
2016-Apr-21 15:33N 29°55' W 090°04'0 0.0
2016-Apr-21 14:33N 29°55' W 090°04'0 0.0
2016-Apr-21 13:33N 29°55' W 090°04'0 0.0
2016-Apr-21 12:33N 29°55' W 090°04'2 2.4
2016-Apr-21 11:33N 29°57' W 090°02'5 4.7
2016-Apr-21 10:33N 29°55' W 089°57'4 3.5
2016-Apr-21 09:31N 29°52' W 089°55'3 3.5
2016-Apr-21 08:33N 29°51' W 089°59'5 4.9
2016-Apr-21 07:32N 29°46' W 090°01'  
Track history (hours):
 
Tides and Currents Weather Stations Pressure Air Temp Water Temp Dewpoint Dewpoint Depression Visibility Wind Speed Wind Dir Waves Ship Positions

Whale Watcher II

Owner: Ronald L. Robbins LLC, Cape May, NJ. More information available from US FCC via Universal Licensing System and Coast Guard Vessel Documentation Center.

Last reported at 2016-Apr-30 00:33 UTC. Time now 2016-Apr-30 01:28 UTC.
Position N 29°55' W 090°04'.

Length 22 m.

Type: Towing. MMSI: 367011790.

Date/timePositionNaut miles runAvg speedWind from/ knotsBaromVisibWave heightAir tempDewpointWater temp
2016-Apr-30 00:33N 29°55' W 090°04'0 0.1
2016-Apr-29 23:33N 29°55' W 090°04'0 0.0
2016-Apr-29 22:33N 29°55' W 090°04'0 0.0
2016-Apr-29 21:33N 29°55' W 090°04'0 0.1
2016-Apr-29 20:33N 29°55' W 090°04'0 0.0
2016-Apr-29 19:33N 29°55' W 090°04'0 0.1
2016-Apr-29 18:33N 29°55' W 090°04'0 0.0
2016-Apr-29 17:33N 29°55' W 090°04'0 0.0
2016-Apr-29 16:33N 29°55' W 090°04'0 0.0
2016-Apr-29 15:33N 29°55' W 090°04'0 0.0
2016-Apr-29 14:33N 29°55' W 090°04'0 0.0
2016-Apr-29 13:33N 29°55' W 090°04'0 0.0
2016-Apr-29 12:33N 29°55' W 090°04'0 0.0
2016-Apr-29 11:33N 29°55' W 090°04'0 0.0
2016-Apr-29 10:33N 29°55' W 090°04'0 0.0
2016-Apr-29 09:33N 29°55' W 090°04'2 2.5
2016-Apr-29 08:33N 29°57' W 090°02'5 4.8
2016-Apr-29 07:32N 29°55' W 089°56'3 2.9
2016-Apr-29 06:30N 29°52' W 089°56'4 3.9
2016-Apr-29 05:33N 29°50' W 089°60'6 0.2
2016-Apr-28 04:04N 29°44' W 089°60'4 7.4
2016-Apr-28 03:31N 29°48' W 090°00'8 6.4
2016-Apr-28 02:17N 29°55' W 089°55'6 9.0
2016-Apr-28 01:33N 29°57' W 090°02'3 2.6
2016-Apr-28 00:33N 29°55' W 090°04'0 0.1
2016-Apr-27 23:30N 29°56' W 090°04'0 0.4
2016-Apr-27 22:26N 29°56' W 090°03'1 0.6
2016-Apr-27 21:33N 29°55' W 090°04'2 2.2
2016-Apr-27 20:33N 29°57' W 090°02'2 1.6
2016-Apr-27 19:12N 29°56' W 090°00'0 0.0
2016-Apr-27 18:33N 29°56' W 090°00'0 0.0
2016-Apr-27 17:33N 29°56' W 090°00'0 0.0
2016-Apr-27 16:33N 29°56' W 090°00'0 0.0
2016-Apr-27 15:33N 29°56' W 090°00'0 0.1
2016-Apr-27 14:33N 29°56' W 090°00'1 1.2
2016-Apr-27 13:33N 29°57' W 090°01'0 0.0
2016-Apr-27 12:33N 29°57' W 090°01'0 0.0
2016-Apr-27 11:33N 29°57' W 090°01'0 0.0
2016-Apr-27 10:33N 29°57' W 090°01'0 0.0
2016-Apr-27 09:33N 29°57' W 090°01'0 0.1
2016-Apr-27 08:33N 29°57' W 090°01'3 2.6
2016-Apr-27 07:33N 29°55' W 090°04'0 0.1
2016-Apr-27 06:33N 29°55' W 090°04'2 1.9
2016-Apr-27 05:33N 29°55' W 090°06'4 0.4
2016-Apr-26 17:33N 29°57' W 090°10'4 4.1
2016-Apr-26 16:33N 29°55' W 090°06'2 2.3
2016-Apr-26 15:33N 29°56' W 090°03'2 1.7
2016-Apr-26 14:33N 29°55' W 090°05'1 1.2
2016-Apr-26 13:33N 29°55' W 090°06'0 0.0
2016-Apr-26 12:33N 29°55' W 090°06'0 0.0
2016-Apr-26 11:33N 29°55' W 090°06'0 0.0
2016-Apr-26 10:33N 29°55' W 090°06'0 0.0
2016-Apr-26 09:33N 29°55' W 090°06'0 0.0
2016-Apr-26 08:33N 29°55' W 090°06'0 0.0
2016-Apr-26 07:33N 29°55' W 090°06'0 0.0
2016-Apr-26 06:33N 29°55' W 090°06'0 0.0
2016-Apr-26 05:33N 29°55' W 090°06'0 0.0
2016-Apr-26 04:33N 29°55' W 090°06'3 2.5
2016-Apr-26 03:33N 29°56' W 090°04'0 0.1
2016-Apr-26 02:33N 29°56' W 090°04'0 0.0
2016-Apr-26 01:33N 29°56' W 090°04'0 0.0
2016-Apr-26 00:33N 29°56' W 090°04'0 0.0
2016-Apr-25 23:33N 29°56' W 090°04'0 0.2
2016-Apr-25 22:33N 29°56' W 090°03'0 0.0
2016-Apr-25 21:33N 29°56' W 090°03'0 0.5
2016-Apr-25 20:33N 29°55' W 090°04'0 0.0
2016-Apr-25 19:33N 29°55' W 090°04'0 0.0
2016-Apr-25 18:33N 29°55' W 090°04'0 0.0
2016-Apr-25 17:33N 29°55' W 090°04'0 0.0
2016-Apr-25 16:33N 29°55' W 090°04'0 0.0
2016-Apr-25 15:33N 29°55' W 090°04'0 0.0
2016-Apr-25 14:33N 29°55' W 090°04'0 0.0
2016-Apr-25 13:33N 29°55' W 090°04'0 0.1
2016-Apr-25 12:33N 29°55' W 090°04'1 1.0
2016-Apr-25 11:33N 29°56' W 090°03'3 3.3
2016-Apr-25 10:33N 29°56' W 089°60'4 4.3
2016-Apr-25 09:33N 29°55' W 089°55'3 2.8
2016-Apr-25 08:33N 29°52' W 089°57'4 3.5
2016-Apr-25 07:32N 29°50' W 089°60'5 0.7
2016-Apr-25 00:32N 29°45' W 090°01'8 8.6
2016-Apr-24 23:33N 29°53' W 089°57'0 0.2
2016-Apr-24 22:33N 29°53' W 089°57'0 0.0
2016-Apr-24 21:33N 29°53' W 089°57'0 0.0
2016-Apr-24 20:33N 29°53' W 089°57'3 3.4
2016-Apr-24 19:33N 29°50' W 089°60'0 0.0
2016-Apr-24 18:18N 29°50' W 089°60'0 0.0
2016-Apr-24 17:25N 29°50' W 089°60'2 2.6
2016-Apr-24 16:33N 29°52' W 089°59'3 3.2
2016-Apr-24 15:33N 29°55' W 089°58'5 5.1
2016-Apr-24 14:34N 29°55' W 090°04'0 0.1
2016-Apr-24 13:33N 29°56' W 090°04'3 2.5
2016-Apr-24 12:33N 29°57' W 090°01'1 0.9
2016-Apr-24 11:33N 29°56' W 090°00'0 0.0
2016-Apr-24 10:33N 29°56' W 090°00'0 0.5
2016-Apr-24 09:33N 29°56' W 089°60'0 0.0
2016-Apr-24 08:33N 29°56' W 089°60'0 0.1
2016-Apr-24 07:33N 29°56' W 089°60'1 1.5
2016-Apr-24 06:33N 29°56' W 089°58'2 1.3
2016-Apr-24 05:21N 29°56' W 089°56'0 0.0
2016-Apr-24 04:26N 29°55' W 089°56'0 0.0
2016-Apr-24 03:33N 29°55' W 089°57'2 2.3
2016-Apr-24 02:33N 29°56' W 089°59'4 4.0
2016-Apr-24 01:33N 29°55' W 090°04'0 0.0
2016-Apr-24 00:34N 29°55' W 090°04'0 0.0
2016-Apr-23 23:33N 29°55' W 090°04'0 0.2
2016-Apr-23 22:33N 29°55' W 090°04'0 0.3
2016-Apr-23 21:33N 29°56' W 090°04'0 0.1
2016-Apr-23 20:33N 29°55' W 090°04'0 0.0
2016-Apr-23 19:34N 29°55' W 090°04'0 0.0
2016-Apr-23 18:34N 29°55' W 090°04'0 0.0
2016-Apr-23 17:34N 29°55' W 090°04'0 0.1
2016-Apr-23 16:33N 29°55' W 090°04'0 0.2
2016-Apr-23 15:33N 29°56' W 090°04'0 0.1
2016-Apr-23 14:33N 29°56' W 090°04'0 0.1
2016-Apr-23 13:33N 29°55' W 090°04'1 0.6
2016-Apr-23 12:33N 29°56' W 090°03'0 0.0
2016-Apr-23 11:33N 29°56' W 090°03'0 0.0
2016-Apr-23 10:33N 29°56' W 090°03'0 0.0
2016-Apr-23 09:33N 29°56' W 090°03'0 0.0
2016-Apr-23 08:33N 29°56' W 090°03'0 0.0
2016-Apr-23 07:33N 29°56' W 090°03'0 0.0
2016-Apr-23 06:33N 29°56' W 090°03'0 0.0
2016-Apr-23 05:33N 29°56' W 090°03'0 0.0
2016-Apr-23 04:34N 29°56' W 090°03'0 0.0
2016-Apr-23 03:33N 29°56' W 090°03'0 0.0
2016-Apr-23 02:33N 29°56' W 090°03'0 0.0
2016-Apr-23 01:33N 29°56' W 090°03'0 0.1
2016-Apr-23 00:33N 29°56' W 090°03'3 2.8
2016-Apr-22 23:33N 29°56' W 090°00'4 4.1
2016-Apr-22 22:33N 29°55' W 089°56'2 0.5
2016-Apr-22 19:29N 29°54' W 089°54'9 9.3
2016-Apr-22 18:33N 29°57' W 090°04'2 1.8
2016-Apr-22 17:33N 29°55' W 090°04'0 0.0
2016-Apr-22 16:33N 29°55' W 090°04'0 0.0
2016-Apr-22 15:33N 29°55' W 090°04'0 0.4
2016-Apr-22 14:33N 29°56' W 090°04'0 0.1
2016-Apr-22 13:33N 29°56' W 090°04'1 0.8
2016-Apr-22 12:33N 29°55' W 090°04'0 0.0
2016-Apr-22 11:33N 29°55' W 090°04'0 0.0
2016-Apr-22 10:34N 29°55' W 090°04'0 0.0
2016-Apr-22 09:33N 29°55' W 090°04'0 0.0
2016-Apr-22 08:33N 29°55' W 090°04'0 0.0
2016-Apr-22 07:33N 29°55' W 090°04'0 0.0
2016-Apr-22 06:33N 29°55' W 090°04'0 0.0
2016-Apr-22 05:33N 29°55' W 090°04'1 0.8
2016-Apr-22 04:33N 29°56' W 090°03'0 0.2
2016-Apr-22 03:33N 29°56' W 090°04'0 0.0
2016-Apr-22 02:33N 29°56' W 090°04'1 0.9
2016-Apr-22 01:33N 29°55' W 090°05'1 0.9
2016-Apr-22 00:33N 29°56' W 090°04'0 0.2
2016-Apr-21 23:33N 29°56' W 090°03'0 0.0
2016-Apr-21 22:34N 29°56' W 090°03'0 0.0
2016-Apr-21 21:33N 29°56' W 090°03'0 0.3
2016-Apr-21 20:33N 29°56' W 090°04'0 0.2
2016-Apr-21 19:33N 29°55' W 090°04'0 0.0
2016-Apr-21 18:33N 29°55' W 090°04'0 0.0
2016-Apr-21 17:33N 29°55' W 090°04'0 0.0
2016-Apr-21 16:34N 29°55' W 090°04'0 0.0
2016-Apr-21 15:33N 29°55' W 090°04'0 0.0
2016-Apr-21 14:33N 29°55' W 090°04'0 0.0
2016-Apr-21 13:33N 29°55' W 090°04'0 0.0
2016-Apr-21 12:33N 29°55' W 090°04'2 2.4
2016-Apr-21 11:33N 29°57' W 090°02'5 4.7
2016-Apr-21 10:33N 29°55' W 089°57'4 3.5
2016-Apr-21 09:31N 29°52' W 089°55'3 3.5
2016-Apr-21 08:33N 29°51' W 089°59'5 4.9
2016-Apr-21 07:32N 29°46' W 090°01'  

Dump ship's entire track history